sensor_id;sensor_type;location;lat;lon;timestamp;P1;durP1;ratioP1;P2;durP2;ratioP2
13807;SDS011;40769;51.512;5.494;2022-11-24T00:01:17;6.55;;;2.50;;
13807;SDS011;40769;51.512;5.494;2022-11-24T00:03:44;6.00;;;2.35;;
13807;SDS011;40769;51.512;5.494;2022-11-24T00:06:15;7.82;;;2.83;;
13807;SDS011;40769;51.512;5.494;2022-11-24T00:08:43;5.35;;;2.13;;
13807;SDS011;40769;51.512;5.494;2022-11-24T00:11:14;6.43;;;2.55;;
13807;SDS011;40769;51.512;5.494;2022-11-24T00:13:41;4.20;;;2.05;;
13807;SDS011;40769;51.512;5.494;2022-11-24T00:18:38;6.10;;;2.50;;
13807;SDS011;40769;51.512;5.494;2022-11-24T00:21:05;4.50;;;2.15;;
13807;SDS011;40769;51.512;5.494;2022-11-24T00:23:31;4.43;;;2.42;;
13807;SDS011;40769;51.512;5.494;2022-11-24T00:26:07;5.13;;;2.45;;
13807;SDS011;40769;51.512;5.494;2022-11-24T00:28:35;4.63;;;2.55;;
13807;SDS011;40769;51.512;5.494;2022-11-24T00:31:02;6.05;;;2.55;;
13807;SDS011;40769;51.512;5.494;2022-11-24T00:33:28;6.95;;;2.58;;
13807;SDS011;40769;51.512;5.494;2022-11-24T00:35:55;6.63;;;2.40;;
13807;SDS011;40769;51.512;5.494;2022-11-24T00:38:21;4.97;;;2.00;;
13807;SDS011;40769;51.512;5.494;2022-11-24T00:40:47;3.95;;;1.65;;
13807;SDS011;40769;51.512;5.494;2022-11-24T00:43:13;4.57;;;2.20;;
13807;SDS011;40769;51.512;5.494;2022-11-24T00:45:38;6.78;;;2.30;;
13807;SDS011;40769;51.512;5.494;2022-11-24T00:48:05;6.22;;;2.38;;
13807;SDS011;40769;51.512;5.494;2022-11-24T00:50:31;4.88;;;2.20;;
13807;SDS011;40769;51.512;5.494;2022-11-24T00:52:56;6.78;;;2.33;;
13807;SDS011;40769;51.512;5.494;2022-11-24T00:55:22;6.90;;;1.90;;
13807;SDS011;40769;51.512;5.494;2022-11-24T00:57:48;2.88;;;1.55;;
13807;SDS011;40769;51.512;5.494;2022-11-24T01:00:13;4.72;;;1.95;;
13807;SDS011;40769;51.512;5.494;2022-11-24T01:02:39;5.53;;;1.65;;
13807;SDS011;40769;51.512;5.494;2022-11-24T01:05:05;5.28;;;2.35;;
13807;SDS011;40769;51.512;5.494;2022-11-24T01:07:31;5.93;;;2.20;;
13807;SDS011;40769;51.512;5.494;2022-11-24T01:09:57;5.65;;;2.22;;
13807;SDS011;40769;51.512;5.494;2022-11-24T01:12:22;5.05;;;2.10;;
13807;SDS011;40769;51.512;5.494;2022-11-24T01:14:48;6.35;;;2.50;;
13807;SDS011;40769;51.512;5.494;2022-11-24T01:17:13;7.32;;;2.80;;
13807;SDS011;40769;51.512;5.494;2022-11-24T01:19:39;4.55;;;2.03;;
13807;SDS011;40769;51.512;5.494;2022-11-24T01:22:05;7.03;;;2.25;;
13807;SDS011;40769;51.512;5.494;2022-11-24T01:24:30;5.55;;;1.83;;
13807;SDS011;40769;51.512;5.494;2022-11-24T01:26:56;5.70;;;2.13;;
13807;SDS011;40769;51.512;5.494;2022-11-24T01:29:22;4.38;;;1.70;;
13807;SDS011;40769;51.512;5.494;2022-11-24T01:31:47;6.38;;;2.75;;
13807;SDS011;40769;51.512;5.494;2022-11-24T01:34:13;4.88;;;1.85;;
13807;SDS011;40769;51.512;5.494;2022-11-24T01:36:38;5.00;;;1.92;;
13807;SDS011;40769;51.512;5.494;2022-11-24T01:39:04;6.55;;;2.47;;
13807;SDS011;40769;51.512;5.494;2022-11-24T01:41:30;4.00;;;2.15;;
13807;SDS011;40769;51.512;5.494;2022-11-24T01:43:57;5.40;;;2.38;;
13807;SDS011;40769;51.512;5.494;2022-11-24T01:46:30;5.07;;;1.90;;
13807;SDS011;40769;51.512;5.494;2022-11-24T01:49:16;8.63;;;2.42;;
13807;SDS011;40769;51.512;5.494;2022-11-24T01:51:50;4.68;;;1.80;;
13807;SDS011;40769;51.512;5.494;2022-11-24T01:54:40;3.60;;;2.00;;
13807;SDS011;40769;51.512;5.494;2022-11-24T01:57:13;4.95;;;2.30;;
13807;SDS011;40769;51.512;5.494;2022-11-24T01:59:50;4.72;;;1.70;;
13807;SDS011;40769;51.512;5.494;2022-11-24T02:02:21;5.72;;;2.30;;
13807;SDS011;40769;51.512;5.494;2022-11-24T02:04:49;4.22;;;2.03;;
13807;SDS011;40769;51.512;5.494;2022-11-24T02:07:15;8.02;;;2.42;;
13807;SDS011;40769;51.512;5.494;2022-11-24T02:09:43;7.85;;;2.60;;
13807;SDS011;40769;51.512;5.494;2022-11-24T02:12:14;8.35;;;2.63;;
13807;SDS011;40769;51.512;5.494;2022-11-24T02:14:39;6.00;;;2.47;;
13807;SDS011;40769;51.512;5.494;2022-11-24T02:17:07;4.90;;;2.10;;
13807;SDS011;40769;51.512;5.494;2022-11-24T02:22:09;6.15;;;2.42;;
13807;SDS011;40769;51.512;5.494;2022-11-24T02:27:08;6.55;;;2.30;;
13807;SDS011;40769;51.512;5.494;2022-11-24T02:29:35;4.60;;;2.47;;
13807;SDS011;40769;51.512;5.494;2022-11-24T02:32:02;4.38;;;2.30;;
13807;SDS011;40769;51.512;5.494;2022-11-24T02:34:30;5.43;;;2.35;;
13807;SDS011;40769;51.512;5.494;2022-11-24T02:36:56;6.63;;;2.50;;
13807;SDS011;40769;51.512;5.494;2022-11-24T02:39:21;4.50;;;2.50;;
13807;SDS011;40769;51.512;5.494;2022-11-24T02:41:52;5.93;;;2.47;;
13807;SDS011;40769;51.512;5.494;2022-11-24T02:44:23;5.60;;;2.83;;
13807;SDS011;40769;51.512;5.494;2022-11-24T02:47:05;5.35;;;2.30;;
13807;SDS011;40769;51.512;5.494;2022-11-24T02:49:36;6.78;;;3.22;;
13807;SDS011;40769;51.512;5.494;2022-11-24T02:52:02;5.13;;;2.25;;
13807;SDS011;40769;51.512;5.494;2022-11-24T02:54:28;5.60;;;2.53;;
13807;SDS011;40769;51.512;5.494;2022-11-24T02:56:54;7.30;;;2.90;;
13807;SDS011;40769;51.512;5.494;2022-11-24T02:59:20;5.18;;;2.63;;
13807;SDS011;40769;51.512;5.494;2022-11-24T03:01:46;7.32;;;2.80;;
13807;SDS011;40769;51.512;5.494;2022-11-24T03:04:12;6.53;;;2.85;;
13807;SDS011;40769;51.512;5.494;2022-11-24T03:06:38;7.30;;;2.80;;
13807;SDS011;40769;51.512;5.494;2022-11-24T03:09:04;5.68;;;2.80;;
13807;SDS011;40769;51.512;5.494;2022-11-24T03:11:30;5.55;;;2.30;;
13807;SDS011;40769;51.512;5.494;2022-11-24T03:13:55;4.05;;;2.13;;
13807;SDS011;40769;51.512;5.494;2022-11-24T03:16:21;8.85;;;3.38;;
13807;SDS011;40769;51.512;5.494;2022-11-24T03:18:46;6.88;;;2.72;;
13807;SDS011;40769;51.512;5.494;2022-11-24T03:21:15;5.38;;;2.47;;
13807;SDS011;40769;51.512;5.494;2022-11-24T03:23:40;8.70;;;2.90;;
13807;SDS011;40769;51.512;5.494;2022-11-24T03:26:11;6.57;;;2.85;;
13807;SDS011;40769;51.512;5.494;2022-11-24T03:28:38;9.35;;;3.20;;
13807;SDS011;40769;51.512;5.494;2022-11-24T03:31:04;6.13;;;2.75;;
13807;SDS011;40769;51.512;5.494;2022-11-24T03:33:30;5.15;;;2.70;;
13807;SDS011;40769;51.512;5.494;2022-11-24T03:35:57;8.23;;;3.25;;
13807;SDS011;40769;51.512;5.494;2022-11-24T03:38:22;6.70;;;3.00;;
13807;SDS011;40769;51.512;5.494;2022-11-24T03:40:48;5.20;;;2.42;;
13807;SDS011;40769;51.512;5.494;2022-11-24T03:43:13;7.32;;;3.17;;
13807;SDS011;40769;51.512;5.494;2022-11-24T03:45:39;6.75;;;2.70;;
13807;SDS011;40769;51.512;5.494;2022-11-24T03:48:05;10.73;;;3.45;;
13807;SDS011;40769;51.512;5.494;2022-11-24T03:50:31;8.48;;;2.92;;
13807;SDS011;40769;51.512;5.494;2022-11-24T03:52:57;8.27;;;3.28;;
13807;SDS011;40769;51.512;5.494;2022-11-24T03:55:23;5.82;;;2.70;;
13807;SDS011;40769;51.512;5.494;2022-11-24T03:57:48;4.97;;;2.38;;
13807;SDS011;40769;51.512;5.494;2022-11-24T04:00:14;7.05;;;3.05;;
13807;SDS011;40769;51.512;5.494;2022-11-24T04:02:40;7.88;;;3.20;;
13807;SDS011;40769;51.512;5.494;2022-11-24T04:05:06;7.00;;;2.92;;
13807;SDS011;40769;51.512;5.494;2022-11-24T04:07:32;6.18;;;2.70;;
13807;SDS011;40769;51.512;5.494;2022-11-24T04:09:58;6.78;;;2.83;;
13807;SDS011;40769;51.512;5.494;2022-11-24T04:12:23;8.02;;;3.05;;
13807;SDS011;40769;51.512;5.494;2022-11-24T04:15:07;7.30;;;2.60;;
13807;SDS011;40769;51.512;5.494;2022-11-24T04:17:34;7.30;;;3.03;;
13807;SDS011;40769;51.512;5.494;2022-11-24T04:19:59;7.28;;;2.28;;
13807;SDS011;40769;51.512;5.494;2022-11-24T04:22:25;7.28;;;3.10;;
13807;SDS011;40769;51.512;5.494;2022-11-24T04:24:50;7.30;;;2.70;;
13807;SDS011;40769;51.512;5.494;2022-11-24T04:27:16;8.20;;;3.28;;
13807;SDS011;40769;51.512;5.494;2022-11-24T04:29:42;8.02;;;3.08;;
13807;SDS011;40769;51.512;5.494;2022-11-24T04:32:07;6.13;;;2.88;;
13807;SDS011;40769;51.512;5.494;2022-11-24T04:34:33;6.00;;;3.08;;
13807;SDS011;40769;51.512;5.494;2022-11-24T04:36:59;6.22;;;2.85;;
13807;SDS011;40769;51.512;5.494;2022-11-24T04:39:25;6.13;;;2.47;;
13807;SDS011;40769;51.512;5.494;2022-11-24T04:41:51;8.45;;;2.90;;
13807;SDS011;40769;51.512;5.494;2022-11-24T04:44:16;7.70;;;3.15;;
13807;SDS011;40769;51.512;5.494;2022-11-24T04:46:42;8.15;;;3.10;;
13807;SDS011;40769;51.512;5.494;2022-11-24T04:49:07;8.60;;;3.10;;
13807;SDS011;40769;51.512;5.494;2022-11-24T04:51:39;5.97;;;2.40;;
13807;SDS011;40769;51.512;5.494;2022-11-24T04:54:06;6.65;;;2.75;;
13807;SDS011;40769;51.512;5.494;2022-11-24T04:56:35;10.93;;;2.90;;
13807;SDS011;40769;51.512;5.494;2022-11-24T04:59:00;5.68;;;2.38;;
13807;SDS011;40769;51.512;5.494;2022-11-24T05:01:26;5.70;;;2.30;;
13807;SDS011;40769;51.512;5.494;2022-11-24T05:03:55;6.43;;;2.20;;
13807;SDS011;40769;51.512;5.494;2022-11-24T05:06:21;2.53;;;1.77;;
13807;SDS011;40769;51.512;5.494;2022-11-24T05:08:48;3.58;;;1.80;;
13807;SDS011;40769;51.512;5.494;2022-11-24T05:11:14;4.32;;;1.88;;
13807;SDS011;40769;51.512;5.494;2022-11-24T05:13:40;4.70;;;2.08;;
13807;SDS011;40769;51.512;5.494;2022-11-24T05:16:06;4.07;;;1.88;;
13807;SDS011;40769;51.512;5.494;2022-11-24T05:18:32;3.95;;;1.50;;
13807;SDS011;40769;51.512;5.494;2022-11-24T05:20:58;4.47;;;1.88;;
13807;SDS011;40769;51.512;5.494;2022-11-24T05:23:24;5.20;;;2.10;;
13807;SDS011;40769;51.512;5.494;2022-11-24T05:25:50;3.53;;;1.70;;
13807;SDS011;40769;51.512;5.494;2022-11-24T05:28:16;5.35;;;1.92;;
13807;SDS011;40769;51.512;5.494;2022-11-24T05:30:42;3.40;;;1.80;;
13807;SDS011;40769;51.512;5.494;2022-11-24T05:33:11;4.72;;;2.30;;
13807;SDS011;40769;51.512;5.494;2022-11-24T05:35:43;4.45;;;1.85;;
13807;SDS011;40769;51.512;5.494;2022-11-24T05:38:09;5.88;;;2.08;;
13807;SDS011;40769;51.512;5.494;2022-11-24T05:40:35;4.97;;;2.40;;
13807;SDS011;40769;51.512;5.494;2022-11-24T05:43:02;6.18;;;2.50;;
13807;SDS011;40769;51.512;5.494;2022-11-24T05:45:28;5.10;;;1.83;;
13807;SDS011;40769;51.512;5.494;2022-11-24T05:47:54;6.85;;;3.03;;
13807;SDS011;40769;51.512;5.494;2022-11-24T05:50:21;5.80;;;2.33;;
13807;SDS011;40769;51.512;5.494;2022-11-24T05:52:47;5.82;;;2.33;;
13807;SDS011;40769;51.512;5.494;2022-11-24T05:55:14;6.03;;;2.50;;
13807;SDS011;40769;51.512;5.494;2022-11-24T05:57:40;8.25;;;2.80;;
13807;SDS011;40769;51.512;5.494;2022-11-24T06:00:06;8.07;;;2.92;;
13807;SDS011;40769;51.512;5.494;2022-11-24T06:02:32;6.47;;;2.30;;
13807;SDS011;40769;51.512;5.494;2022-11-24T06:04:58;4.35;;;2.42;;
13807;SDS011;40769;51.512;5.494;2022-11-24T06:07:24;3.83;;;1.98;;
13807;SDS011;40769;51.512;5.494;2022-11-24T06:09:49;5.85;;;2.50;;
13807;SDS011;40769;51.512;5.494;2022-11-24T06:12:15;6.18;;;2.95;;
13807;SDS011;40769;51.512;5.494;2022-11-24T06:14:41;6.43;;;2.78;;
13807;SDS011;40769;51.512;5.494;2022-11-24T06:17:07;7.18;;;2.75;;
13807;SDS011;40769;51.512;5.494;2022-11-24T06:19:34;6.80;;;2.28;;
13807;SDS011;40769;51.512;5.494;2022-11-24T06:22:00;4.22;;;2.00;;
13807;SDS011;40769;51.512;5.494;2022-11-24T06:24:25;5.90;;;2.10;;
13807;SDS011;40769;51.512;5.494;2022-11-24T06:26:51;4.28;;;1.80;;
13807;SDS011;40769;51.512;5.494;2022-11-24T06:29:17;6.65;;;2.28;;
13807;SDS011;40769;51.512;5.494;2022-11-24T06:31:42;4.05;;;2.10;;
13807;SDS011;40769;51.512;5.494;2022-11-24T06:34:08;5.30;;;2.55;;
13807;SDS011;40769;51.512;5.494;2022-11-24T06:36:36;4.68;;;2.17;;
13807;SDS011;40769;51.512;5.494;2022-11-24T06:39:02;3.10;;;1.80;;
13807;SDS011;40769;51.512;5.494;2022-11-24T06:41:29;4.47;;;1.92;;
13807;SDS011;40769;51.512;5.494;2022-11-24T06:43:55;4.93;;;2.05;;
13807;SDS011;40769;51.512;5.494;2022-11-24T06:46:23;3.40;;;1.73;;
13807;SDS011;40769;51.512;5.494;2022-11-24T06:48:52;4.18;;;1.83;;
13807;SDS011;40769;51.512;5.494;2022-11-24T06:51:18;5.32;;;1.90;;
13807;SDS011;40769;51.512;5.494;2022-11-24T06:53:44;3.13;;;1.35;;
13807;SDS011;40769;51.512;5.494;2022-11-24T06:56:11;3.83;;;1.60;;
13807;SDS011;40769;51.512;5.494;2022-11-24T06:58:39;3.50;;;1.48;;
13807;SDS011;40769;51.512;5.494;2022-11-24T07:01:06;3.17;;;1.40;;
13807;SDS011;40769;51.512;5.494;2022-11-24T07:03:32;2.78;;;1.35;;
13807;SDS011;40769;51.512;5.494;2022-11-24T07:05:57;2.10;;;1.17;;
13807;SDS011;40769;51.512;5.494;2022-11-24T07:08:23;4.15;;;1.27;;
13807;SDS011;40769;51.512;5.494;2022-11-24T07:10:49;3.00;;;1.25;;
13807;SDS011;40769;51.512;5.494;2022-11-24T07:13:16;2.15;;;1.13;;
13807;SDS011;40769;51.512;5.494;2022-11-24T07:15:45;3.40;;;1.40;;
13807;SDS011;40769;51.512;5.494;2022-11-24T07:18:11;3.90;;;1.50;;
13807;SDS011;40769;51.512;5.494;2022-11-24T07:20:37;3.72;;;1.42;;
13807;SDS011;40769;51.512;5.494;2022-11-24T07:23:03;2.08;;;1.35;;
13807;SDS011;40769;51.512;5.494;2022-11-24T07:25:28;2.53;;;1.00;;
13807;SDS011;40769;51.512;5.494;2022-11-24T07:27:55;2.47;;;1.10;;
13807;SDS011;40769;51.512;5.494;2022-11-24T07:30:22;2.67;;;1.33;;
13807;SDS011;40769;51.512;5.494;2022-11-24T07:32:48;2.40;;;1.10;;
13807;SDS011;40769;51.512;5.494;2022-11-24T07:35:13;3.30;;;1.10;;
13807;SDS011;40769;51.512;5.494;2022-11-24T07:37:39;1.95;;;1.02;;
13807;SDS011;40769;51.512;5.494;2022-11-24T07:40:05;2.13;;;1.20;;
13807;SDS011;40769;51.512;5.494;2022-11-24T07:42:31;2.53;;;1.20;;
13807;SDS011;40769;51.512;5.494;2022-11-24T07:44:57;2.13;;;1.17;;
13807;SDS011;40769;51.512;5.494;2022-11-24T07:47:23;2.22;;;1.17;;
13807;SDS011;40769;51.512;5.494;2022-11-24T07:49:48;2.33;;;1.10;;
13807;SDS011;40769;51.512;5.494;2022-11-24T07:52:14;3.03;;;1.30;;
13807;SDS011;40769;51.512;5.494;2022-11-24T07:54:39;2.30;;;0.95;;
13807;SDS011;40769;51.512;5.494;2022-11-24T07:57:05;2.75;;;1.10;;
13807;SDS011;40769;51.512;5.494;2022-11-24T07:59:30;3.42;;;1.23;;
13807;SDS011;40769;51.512;5.494;2022-11-24T08:01:56;3.38;;;1.45;;
13807;SDS011;40769;51.512;5.494;2022-11-24T08:04:22;4.13;;;1.52;;
13807;SDS011;40769;51.512;5.494;2022-11-24T08:06:47;2.67;;;1.10;;
13807;SDS011;40769;51.512;5.494;2022-11-24T08:09:13;1.73;;;1.10;;
13807;SDS011;40769;51.512;5.494;2022-11-24T08:11:38;4.07;;;1.40;;
13807;SDS011;40769;51.512;5.494;2022-11-24T08:14:04;3.63;;;1.10;;
13807;SDS011;40769;51.512;5.494;2022-11-24T08:16:30;2.28;;;1.08;;
13807;SDS011;40769;51.512;5.494;2022-11-24T08:18:56;3.42;;;1.40;;
13807;SDS011;40769;51.512;5.494;2022-11-24T08:21:21;3.15;;;1.50;;
13807;SDS011;40769;51.512;5.494;2022-11-24T08:23:48;3.97;;;1.33;;
13807;SDS011;40769;51.512;5.494;2022-11-24T08:26:14;4.55;;;1.77;;
13807;SDS011;40769;51.512;5.494;2022-11-24T08:28:43;5.53;;;1.80;;
13807;SDS011;40769;51.512;5.494;2022-11-24T08:31:11;3.10;;;1.27;;
13807;SDS011;40769;51.512;5.494;2022-11-24T08:33:39;3.33;;;1.50;;
13807;SDS011;40769;51.512;5.494;2022-11-24T08:36:06;3.40;;;1.55;;
13807;SDS011;40769;51.512;5.494;2022-11-24T08:38:33;4.35;;;1.23;;
13807;SDS011;40769;51.512;5.494;2022-11-24T08:41:03;3.47;;;1.40;;
13807;SDS011;40769;51.512;5.494;2022-11-24T08:43:29;4.13;;;1.60;;
13807;SDS011;40769;51.512;5.494;2022-11-24T08:46:06;3.80;;;1.95;;
13807;SDS011;40769;51.512;5.494;2022-11-24T08:48:37;2.35;;;1.55;;
13807;SDS011;40769;51.512;5.494;2022-11-24T08:51:07;2.22;;;1.30;;
13807;SDS011;40769;51.512;5.494;2022-11-24T08:53:34;5.07;;;1.65;;
13807;SDS011;40769;51.512;5.494;2022-11-24T08:55:59;2.35;;;1.48;;
13807;SDS011;40769;51.512;5.494;2022-11-24T08:58:27;4.18;;;1.58;;
13807;SDS011;40769;51.512;5.494;2022-11-24T09:00:52;3.75;;;1.55;;
13807;SDS011;40769;51.512;5.494;2022-11-24T09:03:18;3.60;;;1.38;;
13807;SDS011;40769;51.512;5.494;2022-11-24T09:05:44;3.90;;;1.70;;
13807;SDS011;40769;51.512;5.494;2022-11-24T09:08:09;4.03;;;1.67;;
13807;SDS011;40769;51.512;5.494;2022-11-24T09:10:35;2.20;;;1.40;;
13807;SDS011;40769;51.512;5.494;2022-11-24T09:13:01;4.57;;;1.73;;
13807;SDS011;40769;51.512;5.494;2022-11-24T09:15:26;2.53;;;1.50;;
13807;SDS011;40769;51.512;5.494;2022-11-24T09:17:52;3.50;;;1.75;;
13807;SDS011;40769;51.512;5.494;2022-11-24T09:20:18;2.75;;;1.40;;
13807;SDS011;40769;51.512;5.494;2022-11-24T09:22:44;4.55;;;1.98;;
13807;SDS011;40769;51.512;5.494;2022-11-24T09:25:11;4.30;;;1.67;;
13807;SDS011;40769;51.512;5.494;2022-11-24T09:27:37;3.83;;;1.80;;
13807;SDS011;40769;51.512;5.494;2022-11-24T09:30:03;4.32;;;1.85;;
13807;SDS011;40769;51.512;5.494;2022-11-24T09:32:29;3.88;;;2.08;;
13807;SDS011;40769;51.512;5.494;2022-11-24T09:34:55;4.53;;;2.03;;
13807;SDS011;40769;51.512;5.494;2022-11-24T09:37:20;5.05;;;1.80;;
13807;SDS011;40769;51.512;5.494;2022-11-24T09:39:46;5.03;;;1.73;;
13807;SDS011;40769;51.512;5.494;2022-11-24T09:45:13;4.97;;;1.80;;
13807;SDS011;40769;51.512;5.494;2022-11-24T09:50:27;5.55;;;2.08;;
13807;SDS011;40769;51.512;5.494;2022-11-24T09:53:17;4.53;;;2.13;;
13807;SDS011;40769;51.512;5.494;2022-11-24T09:56:20;6.03;;;1.80;;
13807;SDS011;40769;51.512;5.494;2022-11-24T10:03:48;4.50;;;1.90;;
13807;SDS011;40769;51.512;5.494;2022-11-24T10:06:33;3.47;;;2.00;;
13807;SDS011;40769;51.512;5.494;2022-11-24T10:25:59;7.25;;;2.28;;
13807;SDS011;40769;51.512;5.494;2022-11-24T10:28:31;6.47;;;2.33;;
13807;SDS011;40769;51.512;5.494;2022-11-24T10:31:12;6.13;;;2.13;;
13807;SDS011;40769;51.512;5.494;2022-11-24T10:33:47;3.78;;;1.40;;
13807;SDS011;40769;51.512;5.494;2022-11-24T10:36:15;4.63;;;1.48;;
13807;SDS011;40769;51.512;5.494;2022-11-24T10:44:42;7.20;;;1.95;;
13807;SDS011;40769;51.512;5.494;2022-11-24T10:47:17;6.50;;;2.42;;
13807;SDS011;40769;51.512;5.494;2022-11-24T10:49:51;5.50;;;1.90;;
13807;SDS011;40769;51.512;5.494;2022-11-24T10:52:44;5.45;;;1.95;;
13807;SDS011;40769;51.512;5.494;2022-11-24T10:55:18;7.90;;;2.50;;
13807;SDS011;40769;51.512;5.494;2022-11-24T10:57:43;4.47;;;1.63;;
13807;SDS011;40769;51.512;5.494;2022-11-24T11:02:44;4.82;;;1.90;;
13807;SDS011;40769;51.512;5.494;2022-11-24T11:08:15;6.97;;;1.98;;
13807;SDS011;40769;51.512;5.494;2022-11-24T11:10:44;5.85;;;2.35;;
13807;SDS011;40769;51.512;5.494;2022-11-24T11:13:27;7.28;;;2.45;;
13807;SDS011;40769;51.512;5.494;2022-11-24T11:15:54;4.07;;;1.98;;
13807;SDS011;40769;51.512;5.494;2022-11-24T11:18:21;7.45;;;2.38;;
13807;SDS011;40769;51.512;5.494;2022-11-24T11:20:54;3.80;;;1.90;;
13807;SDS011;40769;51.512;5.494;2022-11-24T11:23:32;7.38;;;2.22;;
13807;SDS011;40769;51.512;5.494;2022-11-24T11:28:59;3.65;;;2.17;;
13807;SDS011;40769;51.512;5.494;2022-11-24T11:31:32;5.57;;;2.92;;
13807;SDS011;40769;51.512;5.494;2022-11-24T11:36:34;6.88;;;2.33;;
13807;SDS011;40769;51.512;5.494;2022-11-24T11:39:03;4.05;;;1.85;;
13807;SDS011;40769;51.512;5.494;2022-11-24T11:41:33;5.60;;;2.22;;
13807;SDS011;40769;51.512;5.494;2022-11-24T11:47:12;5.40;;;2.30;;
13807;SDS011;40769;51.512;5.494;2022-11-24T11:49:57;5.70;;;2.58;;
13807;SDS011;40769;51.512;5.494;2022-11-24T12:00:44;4.15;;;1.77;;
13807;SDS011;40769;51.512;5.494;2022-11-24T12:03:24;5.50;;;2.17;;
13807;SDS011;40769;51.512;5.494;2022-11-24T12:14:11;4.93;;;1.98;;
13807;SDS011;40769;51.512;5.494;2022-11-24T12:17:06;5.03;;;1.90;;
13807;SDS011;40769;51.512;5.494;2022-11-24T12:25:21;7.30;;;2.78;;
13807;SDS011;40769;51.512;5.494;2022-11-24T12:28:01;3.95;;;1.83;;
13807;SDS011;40769;51.512;5.494;2022-11-24T12:31:24;4.03;;;2.08;;
13807;SDS011;40769;51.512;5.494;2022-11-24T12:45:02;7.38;;;2.00;;
13807;SDS011;40769;51.512;5.494;2022-11-24T12:50:13;4.32;;;2.00;;
13807;SDS011;40769;51.512;5.494;2022-11-24T12:52:44;6.40;;;2.35;;
13807;SDS011;40769;51.512;5.494;2022-11-24T12:55:16;8.27;;;2.88;;
13807;SDS011;40769;51.512;5.494;2022-11-24T13:00:35;4.75;;;2.25;;
13807;SDS011;40769;51.512;5.494;2022-11-24T13:05:46;6.55;;;2.67;;
13807;SDS011;40769;51.512;5.494;2022-11-24T13:08:18;4.30;;;2.00;;
13807;SDS011;40769;51.512;5.494;2022-11-24T13:10:45;5.63;;;2.45;;
13807;SDS011;40769;51.512;5.494;2022-11-24T13:13:12;4.40;;;2.38;;
13807;SDS011;40769;51.512;5.494;2022-11-24T13:21:32;8.98;;;2.70;;
13807;SDS011;40769;51.512;5.494;2022-11-24T13:31:52;6.28;;;2.22;;
13807;SDS011;40769;51.512;5.494;2022-11-24T13:37:03;3.35;;;1.55;;
13807;SDS011;40769;51.512;5.494;2022-11-24T13:48:23;3.20;;;1.67;;
13807;SDS011;40769;51.512;5.494;2022-11-24T13:58:42;4.93;;;1.80;;
13807;SDS011;40769;51.512;5.494;2022-11-24T14:06:52;3.92;;;1.70;;
13807;SDS011;40769;51.512;5.494;2022-11-24T14:14:25;5.50;;;2.38;;
13807;SDS011;40769;51.512;5.494;2022-11-24T14:19:52;6.20;;;1.65;;
13807;SDS011;40769;51.512;5.494;2022-11-24T14:24:54;3.25;;;1.60;;
13807;SDS011;40769;51.512;5.494;2022-11-24T14:27:31;5.78;;;1.80;;
13807;SDS011;40769;51.512;5.494;2022-11-24T14:30:14;4.80;;;1.75;;
13807;SDS011;40769;51.512;5.494;2022-11-24T14:32:53;3.45;;;1.40;;
13807;SDS011;40769;51.512;5.494;2022-11-24T14:35:42;3.33;;;1.70;;
13807;SDS011;40769;51.512;5.494;2022-11-24T14:38:09;6.13;;;1.50;;
13807;SDS011;40769;51.512;5.494;2022-11-24T14:43:20;6.45;;;2.17;;
13807;SDS011;40769;51.512;5.494;2022-11-24T14:48:23;6.35;;;1.98;;
13807;SDS011;40769;51.512;5.494;2022-11-24T14:50:53;5.00;;;2.30;;
13807;SDS011;40769;51.512;5.494;2022-11-24T14:53:29;5.60;;;2.10;;
13807;SDS011;40769;51.512;5.494;2022-11-24T14:58:57;3.92;;;1.85;;
13807;SDS011;40769;51.512;5.494;2022-11-24T15:06:37;6.47;;;2.22;;
13807;SDS011;40769;51.512;5.494;2022-11-24T15:09:04;4.07;;;1.75;;
13807;SDS011;40769;51.512;5.494;2022-11-24T15:11:31;4.57;;;1.75;;
13807;SDS011;40769;51.512;5.494;2022-11-24T15:13:58;2.92;;;1.60;;
13807;SDS011;40769;51.512;5.494;2022-11-24T15:16:24;5.20;;;2.08;;
13807;SDS011;40769;51.512;5.494;2022-11-24T15:18:55;4.28;;;2.05;;
13807;SDS011;40769;51.512;5.494;2022-11-24T15:21:32;2.88;;;1.80;;
13807;SDS011;40769;51.512;5.494;2022-11-24T15:24:03;4.80;;;1.95;;
13807;SDS011;40769;51.512;5.494;2022-11-24T15:26:30;2.85;;;1.58;;
13807;SDS011;40769;51.512;5.494;2022-11-24T15:28:56;4.55;;;2.00;;
13807;SDS011;40769;51.512;5.494;2022-11-24T15:31:21;5.70;;;2.05;;
13807;SDS011;40769;51.512;5.494;2022-11-24T15:33:47;5.75;;;2.15;;
13807;SDS011;40769;51.512;5.494;2022-11-24T15:36:13;3.55;;;1.65;;
13807;SDS011;40769;51.512;5.494;2022-11-24T15:38:40;5.88;;;2.35;;
13807;SDS011;40769;51.512;5.494;2022-11-24T15:41:12;2.70;;;1.75;;
13807;SDS011;40769;51.512;5.494;2022-11-24T15:43:44;3.58;;;1.90;;
13807;SDS011;40769;51.512;5.494;2022-11-24T15:46:10;3.17;;;1.67;;
13807;SDS011;40769;51.512;5.494;2022-11-24T15:48:36;4.70;;;1.75;;
13807;SDS011;40769;51.512;5.494;2022-11-24T15:51:02;3.58;;;1.92;;
13807;SDS011;40769;51.512;5.494;2022-11-24T15:56:05;3.85;;;1.88;;
13807;SDS011;40769;51.512;5.494;2022-11-24T15:58:35;4.13;;;1.65;;
13807;SDS011;40769;51.512;5.494;2022-11-24T16:01:01;4.03;;;2.13;;
13807;SDS011;40769;51.512;5.494;2022-11-24T16:03:27;5.55;;;2.47;;
13807;SDS011;40769;51.512;5.494;2022-11-24T16:05:53;4.53;;;2.25;;
13807;SDS011;40769;51.512;5.494;2022-11-24T16:08:19;3.95;;;1.83;;
13807;SDS011;40769;51.512;5.494;2022-11-24T16:10:44;3.75;;;2.20;;
13807;SDS011;40769;51.512;5.494;2022-11-24T16:13:10;4.65;;;2.33;;
13807;SDS011;40769;51.512;5.494;2022-11-24T16:15:37;4.10;;;2.22;;
13807;SDS011;40769;51.512;5.494;2022-11-24T16:18:04;5.03;;;2.55;;
13807;SDS011;40769;51.512;5.494;2022-11-24T16:20:30;3.63;;;1.92;;
13807;SDS011;40769;51.512;5.494;2022-11-24T16:22:58;2.95;;;1.75;;
13807;SDS011;40769;51.512;5.494;2022-11-24T16:25:24;2.60;;;1.63;;
13807;SDS011;40769;51.512;5.494;2022-11-24T16:27:50;3.10;;;1.65;;
13807;SDS011;40769;51.512;5.494;2022-11-24T16:30:15;5.97;;;2.20;;
13807;SDS011;40769;51.512;5.494;2022-11-24T16:32:41;4.30;;;1.80;;
13807;SDS011;40769;51.512;5.494;2022-11-24T16:35:07;2.80;;;1.67;;
13807;SDS011;40769;51.512;5.494;2022-11-24T16:37:33;3.60;;;2.20;;
13807;SDS011;40769;51.512;5.494;2022-11-24T16:39:58;2.88;;;1.98;;
13807;SDS011;40769;51.512;5.494;2022-11-24T16:42:26;3.17;;;2.25;;
13807;SDS011;40769;51.512;5.494;2022-11-24T16:44:52;2.15;;;1.73;;
13807;SDS011;40769;51.512;5.494;2022-11-24T16:47:17;2.95;;;1.92;;
13807;SDS011;40769;51.512;5.494;2022-11-24T16:49:46;3.88;;;2.40;;
13807;SDS011;40769;51.512;5.494;2022-11-24T16:52:12;3.63;;;2.08;;
13807;SDS011;40769;51.512;5.494;2022-11-24T16:54:39;4.65;;;2.58;;
13807;SDS011;40769;51.512;5.494;2022-11-24T16:57:04;4.63;;;2.72;;
13807;SDS011;40769;51.512;5.494;2022-11-24T16:59:30;4.35;;;2.67;;
13807;SDS011;40769;51.512;5.494;2022-11-24T17:01:56;4.72;;;2.28;;
13807;SDS011;40769;51.512;5.494;2022-11-24T17:04:22;4.28;;;2.00;;
13807;SDS011;40769;51.512;5.494;2022-11-24T17:06:48;2.97;;;1.52;;
13807;SDS011;40769;51.512;5.494;2022-11-24T17:09:13;2.80;;;1.80;;
13807;SDS011;40769;51.512;5.494;2022-11-24T17:11:39;4.70;;;2.28;;
13807;SDS011;40769;51.512;5.494;2022-11-24T17:14:05;4.63;;;2.55;;
13807;SDS011;40769;51.512;5.494;2022-11-24T17:16:30;5.60;;;3.70;;
13807;SDS011;40769;51.512;5.494;2022-11-24T17:18:56;5.38;;;3.40;;
13807;SDS011;40769;51.512;5.494;2022-11-24T17:21:23;6.78;;;3.97;;
13807;SDS011;40769;51.512;5.494;2022-11-24T17:23:53;5.25;;;3.00;;
13807;SDS011;40769;51.512;5.494;2022-11-24T17:26:20;6.55;;;2.65;;
13807;SDS011;40769;51.512;5.494;2022-11-24T17:28:46;3.38;;;2.00;;
13807;SDS011;40769;51.512;5.494;2022-11-24T17:31:16;4.57;;;2.30;;
13807;SDS011;40769;51.512;5.494;2022-11-24T17:33:49;4.65;;;1.95;;
13807;SDS011;40769;51.512;5.494;2022-11-24T17:36:16;4.88;;;2.10;;